createdAt,value
2022-12-20T00:00:51.117Z,4.30
2022-12-20T00:03:17.726Z,6.35
2022-12-20T00:05:44.546Z,4.00
2022-12-20T00:08:10.874Z,2.83
2022-12-20T00:10:37.644Z,3.25
2022-12-20T00:13:04.550Z,3.40
2022-12-20T00:15:31.507Z,8.45
2022-12-20T00:17:58.097Z,3.28
2022-12-20T00:20:25.019Z,3.20
2022-12-20T00:22:51.476Z,4.38
2022-12-20T00:25:18.933Z,3.60
2022-12-20T00:27:45.245Z,13.43
2022-12-20T00:30:11.818Z,3.13
2022-12-20T00:32:38.193Z,9.23
2022-12-20T00:35:04.726Z,3.05
2022-12-20T00:37:31.093Z,2.67
2022-12-20T00:39:57.409Z,3.00
2022-12-20T00:42:23.712Z,3.95
2022-12-20T00:44:50.021Z,2.80
2022-12-20T00:47:16.487Z,3.53
2022-12-20T00:49:43.075Z,3.03
2022-12-20T00:52:09.367Z,3.80
2022-12-20T00:54:36.257Z,5.88
2022-12-20T00:57:02.570Z,2.95
2022-12-20T00:59:28.890Z,2.45
2022-12-20T01:01:55.386Z,2.88
2022-12-20T01:04:21.816Z,2.78
2022-12-20T01:06:48.120Z,3.92
2022-12-20T01:09:14.441Z,2.60
2022-12-20T01:11:40.769Z,2.95
2022-12-20T01:14:08.928Z,3.22
2022-12-20T01:16:36.515Z,8.30
2022-12-20T01:19:03.727Z,15.15
2022-12-20T01:21:30.571Z,2.60
2022-12-20T01:23:56.888Z,7.43
2022-12-20T01:26:24.695Z,3.92
2022-12-20T01:28:55.365Z,4.45
2022-12-20T01:31:22.468Z,3.10
2022-12-20T01:33:49.752Z,4.50
2022-12-20T01:36:17.424Z,5.20
2022-12-20T01:38:44.083Z,5.22
2022-12-20T01:41:14.674Z,7.82
2022-12-20T01:43:46.124Z,5.25
2022-12-20T01:46:12.584Z,5.00
2022-12-20T01:48:39.257Z,5.00
2022-12-20T01:51:05.745Z,6.03
2022-12-20T01:53:32.121Z,4.75
2022-12-20T01:56:03.816Z,6.25
2022-12-20T01:58:30.488Z,6.22
2022-12-20T02:00:56.834Z,5.10
2022-12-20T02:03:23.201Z,5.38
2022-12-20T02:05:49.598Z,8.40
2022-12-20T02:08:18.329Z,5.18
2022-12-20T02:10:56.960Z,5.18
2022-12-20T02:13:28.385Z,8.40
2022-12-20T02:15:56.525Z,6.03
2022-12-20T02:18:43.060Z,4.85
2022-12-20T02:21:18.373Z,5.40
2022-12-20T02:26:18.169Z,4.60
2022-12-20T02:28:59.445Z,4.80
2022-12-20T02:31:39.471Z,5.35
2022-12-20T02:34:06.907Z,5.93
2022-12-20T02:36:33.206Z,6.20
2022-12-20T02:38:59.491Z,6.55
2022-12-20T02:41:47.163Z,4.55
2022-12-20T02:44:34.021Z,2.95
2022-12-20T02:47:01.625Z,2.50
2022-12-20T02:49:30.638Z,2.63
2022-12-20T02:51:57.325Z,3.38
2022-12-20T02:54:24.140Z,3.58
2022-12-20T02:56:52.528Z,7.53
2022-12-20T02:59:21.394Z,4.55
2022-12-20T03:01:52.484Z,4.50
2022-12-20T03:04:20.357Z,3.25
2022-12-20T03:07:00.525Z,3.75
2022-12-20T03:09:27.118Z,4.03
2022-12-20T03:11:53.813Z,8.10
2022-12-20T03:14:20.135Z,4.40
2022-12-20T03:16:46.485Z,2.60
2022-12-20T03:19:12.862Z,12.57
2022-12-20T03:21:39.163Z,2.90
2022-12-20T03:24:05.592Z,4.80
2022-12-20T03:26:31.862Z,5.82
2022-12-20T03:28:58.151Z,3.33
2022-12-20T03:31:24.481Z,2.97
2022-12-20T03:33:51.124Z,3.95
2022-12-20T03:36:17.599Z,4.43
2022-12-20T03:38:43.949Z,3.58
2022-12-20T03:41:10.269Z,3.60
2022-12-20T03:43:36.541Z,3.40
2022-12-20T03:46:03.567Z,8.38
2022-12-20T03:48:29.861Z,3.60
2022-12-20T03:50:56.133Z,2.90
2022-12-20T03:53:22.415Z,2.95
2022-12-20T03:55:48.688Z,2.58
2022-12-20T03:58:14.949Z,3.00
2022-12-20T04:00:41.248Z,2.88
2022-12-20T04:03:07.615Z,2.95
2022-12-20T04:05:33.961Z,5.85
2022-12-20T04:08:00.375Z,4.72
2022-12-20T04:10:26.651Z,11.95
2022-12-20T04:12:52.944Z,6.93
2022-12-20T04:15:19.391Z,4.07
2022-12-20T04:17:45.675Z,7.00
2022-12-20T04:20:20.204Z,8.20
2022-12-20T04:22:47.245Z,4.63
2022-12-20T04:25:13.634Z,5.93
2022-12-20T04:27:39.998Z,4.53
2022-12-20T04:30:06.853Z,4.75
2022-12-20T04:32:33.134Z,7.85
2022-12-20T04:34:59.411Z,7.88
2022-12-20T04:37:25.700Z,6.03
2022-12-20T04:39:51.987Z,5.30
2022-12-20T04:42:18.258Z,4.70
2022-12-20T04:44:44.536Z,6.60
2022-12-20T04:47:10.801Z,6.32
2022-12-20T04:49:37.077Z,4.97
2022-12-20T04:52:22.064Z,5.28
2022-12-20T04:54:48.369Z,5.95
2022-12-20T04:57:14.735Z,4.53
2022-12-20T04:59:41.171Z,4.18
2022-12-20T05:02:07.635Z,4.35
2022-12-20T05:04:37.476Z,4.65
2022-12-20T05:07:04.161Z,4.40
2022-12-20T05:09:30.425Z,7.75
2022-12-20T05:11:56.675Z,3.90
2022-12-20T05:14:22.971Z,5.70
2022-12-20T05:16:49.303Z,4.72
2022-12-20T05:19:15.924Z,6.50
2022-12-20T05:22:00.707Z,4.63
2022-12-20T05:24:45.693Z,8.80
2022-12-20T05:27:12.036Z,3.97
2022-12-20T05:29:38.315Z,4.82
2022-12-20T05:32:04.630Z,4.63
2022-12-20T05:34:31.059Z,7.20
2022-12-20T05:36:57.331Z,4.05
2022-12-20T05:39:23.610Z,3.58
2022-12-20T05:41:50.223Z,5.03
2022-12-20T05:44:17.367Z,4.05
2022-12-20T05:46:43.682Z,4.38
2022-12-20T05:49:09.983Z,4.43
2022-12-20T05:51:36.297Z,5.03
2022-12-20T05:54:02.575Z,4.82
2022-12-20T05:56:28.891Z,4.25
2022-12-20T05:58:55.193Z,5.70
2022-12-20T06:01:21.570Z,4.72
2022-12-20T06:03:47.985Z,5.22
2022-12-20T06:06:15.418Z,4.78
2022-12-20T06:08:42.033Z,5.72
2022-12-20T06:11:08.516Z,4.32
2022-12-20T06:13:34.941Z,3.53
2022-12-20T06:16:01.301Z,4.60
2022-12-20T06:18:27.668Z,4.88
2022-12-20T06:20:54.403Z,4.28
2022-12-20T06:23:20.683Z,3.90
2022-12-20T06:25:47.077Z,3.60
2022-12-20T06:28:13.449Z,7.72
2022-12-20T06:30:39.726Z,3.55
2022-12-20T06:33:06.021Z,6.97
2022-12-20T06:35:32.377Z,4.07
2022-12-20T06:37:58.673Z,3.80
2022-12-20T06:40:24.951Z,4.10
2022-12-20T06:42:51.265Z,6.78
2022-12-20T06:45:17.609Z,12.18
2022-12-20T06:47:44.596Z,5.13
2022-12-20T06:50:10.915Z,3.88
2022-12-20T06:52:37.228Z,4.20
2022-12-20T06:55:03.590Z,4.40
2022-12-20T06:57:29.910Z,4.13
2022-12-20T06:59:56.209Z,5.15
2022-12-20T07:02:25.305Z,3.97
2022-12-20T07:04:53.788Z,5.20
2022-12-20T07:07:20.131Z,6.38
2022-12-20T07:09:46.408Z,4.20
2022-12-20T07:12:12.875Z,5.53
2022-12-20T07:14:39.185Z,6.20
2022-12-20T07:17:05.846Z,4.53
2022-12-20T07:19:32.231Z,5.05
2022-12-20T07:21:58.856Z,4.50
2022-12-20T07:24:25.193Z,4.82
2022-12-20T07:26:52.441Z,4.55
2022-12-20T07:29:18.779Z,5.60
2022-12-20T07:31:45.062Z,5.82
2022-12-20T07:34:11.445Z,11.40
2022-12-20T07:36:37.804Z,5.97
2022-12-20T07:39:04.161Z,7.18
2022-12-20T07:41:30.453Z,9.32
2022-12-20T07:43:58.826Z,6.70
2022-12-20T07:46:25.288Z,4.07
2022-12-20T07:48:51.661Z,6.15
2022-12-20T07:51:20.668Z,5.78
2022-12-20T07:53:50.163Z,3.97
2022-12-20T07:56:18.209Z,3.92
2022-12-20T07:58:44.750Z,3.42
2022-12-20T08:01:12.500Z,4.10
2022-12-20T08:03:44.523Z,5.68
2022-12-20T08:06:11.039Z,4.90
2022-12-20T08:08:39.607Z,3.92
2022-12-20T08:11:07.067Z,3.67
2022-12-20T08:13:33.881Z,5.13
2022-12-20T08:16:00.537Z,20.48
2022-12-20T08:18:27.044Z,4.85
2022-12-20T08:20:53.347Z,4.35
2022-12-20T08:23:19.673Z,4.47
2022-12-20T08:25:45.969Z,6.00
2022-12-20T08:28:12.255Z,3.05
2022-12-20T08:30:38.609Z,4.07
2022-12-20T08:33:05.744Z,3.60
2022-12-20T08:35:32.093Z,3.80
2022-12-20T08:37:58.352Z,6.38
2022-12-20T08:40:24.645Z,5.25
2022-12-20T08:42:50.965Z,8.65
2022-12-20T08:45:19.207Z,6.40
2022-12-20T08:47:45.470Z,5.30
2022-12-20T08:50:11.792Z,4.88
2022-12-20T08:52:38.134Z,3.30
2022-12-20T08:55:05.653Z,4.57
2022-12-20T08:57:32.111Z,6.25
2022-12-20T08:59:58.412Z,5.65
2022-12-20T09:02:24.819Z,4.30
2022-12-20T09:04:52.080Z,4.55
2022-12-20T09:07:18.364Z,7.93
2022-12-20T09:09:46.232Z,4.90
2022-12-20T09:12:12.477Z,4.60
2022-12-20T09:14:38.733Z,7.22
2022-12-20T09:17:05.000Z,7.82
2022-12-20T09:19:31.264Z,3.88
2022-12-20T09:21:57.553Z,3.80
2022-12-20T09:24:23.927Z,4.30
2022-12-20T09:26:51.819Z,5.43
2022-12-20T09:29:25.875Z,6.57
2022-12-20T09:31:54.722Z,3.83
2022-12-20T09:34:21.000Z,3.83
2022-12-20T09:36:47.273Z,7.10
2022-12-20T09:39:13.547Z,6.65
2022-12-20T09:41:43.970Z,13.10
2022-12-20T09:44:19.149Z,4.10
2022-12-20T09:46:54.940Z,8.82
2022-12-20T09:49:22.575Z,3.92
2022-12-20T09:51:54.677Z,5.30
2022-12-20T09:54:23.859Z,4.30
2022-12-20T09:56:56.976Z,4.43
2022-12-20T09:59:23.452Z,8.18
2022-12-20T10:01:50.399Z,5.30
2022-12-20T10:04:27.312Z,8.85
2022-12-20T10:07:01.062Z,5.03
2022-12-20T10:09:36.585Z,4.15
2022-12-20T10:12:21.360Z,5.55
2022-12-20T10:15:13.928Z,4.67
2022-12-20T10:17:42.924Z,7.68
2022-12-20T10:20:19.079Z,5.22
2022-12-20T10:22:49.089Z,4.45
2022-12-20T10:25:19.826Z,5.28
2022-12-20T10:27:47.470Z,4.28
2022-12-20T10:30:18.337Z,5.43
2022-12-20T10:32:45.954Z,4.78
2022-12-20T10:35:15.259Z,5.20
2022-12-20T10:38:08.959Z,4.32
2022-12-20T10:41:18.668Z,6.18
2022-12-20T10:43:26.916Z,5.15
2022-12-20T10:45:58.561Z,4.43
2022-12-20T10:48:32.978Z,6.22
2022-12-20T10:51:01.839Z,6.85
2022-12-20T10:53:29.029Z,4.30
2022-12-20T10:56:10.038Z,5.93
2022-12-20T10:58:37.469Z,5.25
2022-12-20T11:01:13.038Z,5.25
2022-12-20T11:03:56.286Z,4.97
2022-12-20T11:06:24.241Z,7.57
2022-12-20T11:08:57.038Z,5.25
2022-12-20T11:13:54.052Z,6.78
2022-12-20T11:16:37.836Z,6.60
2022-12-20T11:19:12.891Z,5.55
2022-12-20T11:22:11.689Z,4.65
2022-12-20T11:24:42.874Z,4.90
2022-12-20T11:27:21.433Z,5.22
2022-12-20T11:30:02.817Z,5.13
2022-12-20T11:32:29.591Z,5.78
2022-12-20T11:34:58.619Z,7.30
2022-12-20T11:37:26.205Z,5.70
2022-12-20T11:40:05.303Z,6.38
2022-12-20T11:42:42.717Z,9.95
2022-12-20T11:45:27.832Z,5.75
2022-12-20T11:47:56.022Z,5.00
2022-12-20T11:50:25.390Z,9.00
2022-12-20T11:52:54.653Z,5.95
2022-12-20T11:55:25.140Z,11.07
2022-12-20T11:58:17.963Z,5.68
2022-12-20T12:00:48.932Z,7.82
2022-12-20T12:03:34.549Z,7.03
2022-12-20T12:06:04.676Z,4.82
2022-12-20T12:08:40.072Z,5.25
2022-12-20T12:11:31.973Z,6.03
2022-12-20T12:13:59.664Z,5.55
2022-12-20T12:16:28.765Z,5.13
2022-12-20T12:18:55.235Z,6.38
2022-12-20T12:21:31.254Z,5.25
2022-12-20T12:23:57.886Z,5.28
2022-12-20T12:26:27.179Z,6.03
2022-12-20T12:28:55.189Z,4.93
2022-12-20T12:31:25.694Z,5.75
2022-12-20T12:34:02.973Z,7.28
2022-12-20T12:36:29.271Z,6.45
2022-12-20T12:39:14.298Z,6.03
2022-12-20T12:42:01.574Z,6.80
2022-12-20T12:44:27.901Z,5.82
2022-12-20T12:46:58.838Z,7.63
2022-12-20T12:49:26.365Z,9.07
2022-12-20T12:51:55.661Z,7.30
2022-12-20T12:54:27.758Z,5.93
2022-12-20T12:56:59.652Z,6.10
2022-12-20T12:59:34.917Z,5.95
2022-12-20T13:04:31.807Z,7.07
2022-12-20T13:06:59.719Z,6.43
2022-12-20T13:09:26.090Z,6.88
2022-12-20T13:12:00.443Z,6.38
2022-12-20T13:14:31.036Z,7.28
2022-12-20T13:17:19.552Z,5.82
2022-12-20T13:19:51.879Z,6.15
2022-12-20T13:22:25.182Z,6.70
2022-12-20T13:24:58.815Z,5.60
2022-12-20T13:27:27.093Z,8.05
2022-12-20T13:30:05.544Z,6.05
2022-12-20T13:32:47.384Z,5.90
2022-12-20T13:35:25.768Z,7.45
2022-12-20T13:37:54.891Z,6.70
2022-12-20T13:40:26.270Z,10.05
2022-12-20T13:42:54.464Z,7.22
2022-12-20T13:45:20.909Z,8.00
2022-12-20T13:47:49.855Z,8.02
2022-12-20T13:50:25.209Z,6.97
2022-12-20T13:55:25.069Z,7.35
2022-12-20T13:57:52.347Z,6.97
2022-12-20T14:00:22.517Z,7.40
2022-12-20T14:02:49.214Z,8.20
2022-12-20T14:05:18.712Z,9.57
2022-12-20T14:07:46.879Z,7.47
2022-12-20T14:10:26.261Z,5.78
2022-12-20T14:12:53.214Z,7.22
2022-12-20T14:15:30.692Z,7.03
2022-12-20T14:17:57.659Z,7.18
2022-12-20T14:20:25.385Z,7.50
2022-12-20T14:22:57.898Z,8.93
2022-12-20T14:25:35.566Z,5.05
2022-12-20T14:28:02.268Z,6.75
2022-12-20T14:30:28.703Z,10.10
2022-12-20T14:32:56.659Z,6.32
2022-12-20T14:35:23.413Z,7.45
2022-12-20T14:38:12.659Z,7.07
2022-12-20T14:40:42.930Z,7.88
2022-12-20T14:43:16.309Z,6.55
2022-12-20T14:45:42.594Z,7.15
2022-12-20T14:48:15.680Z,7.05
2022-12-20T14:50:50.677Z,7.63
2022-12-20T14:53:21.771Z,11.05
2022-12-20T14:55:48.210Z,7.10
2022-12-20T14:58:28.888Z,7.20
2022-12-20T15:01:02.811Z,6.82
2022-12-20T15:03:29.586Z,7.03
2022-12-20T15:05:59.893Z,6.65
2022-12-20T15:08:27.621Z,6.93
2022-12-20T15:10:55.642Z,8.25
2022-12-20T15:13:25.166Z,6.78
2022-12-20T15:15:51.692Z,5.72
2022-12-20T15:18:19.242Z,6.72
2022-12-20T15:20:47.080Z,6.32
2022-12-20T15:23:17.660Z,6.88
2022-12-20T15:25:45.604Z,6.85
2022-12-20T15:28:17.742Z,7.30
2022-12-20T15:30:44.453Z,6.45
2022-12-20T15:33:14.999Z,6.95
2022-12-20T15:35:41.558Z,7.47
2022-12-20T15:38:13.213Z,7.30
2022-12-20T15:40:39.855Z,6.88
2022-12-20T15:43:06.125Z,7.47
2022-12-20T15:45:32.405Z,7.95
2022-12-20T15:47:58.665Z,9.50
2022-12-20T15:50:24.923Z,7.47
2022-12-20T15:52:51.188Z,7.32
2022-12-20T15:55:17.456Z,7.28
2022-12-20T15:57:43.715Z,7.15
2022-12-20T16:00:12.153Z,7.88
2022-12-20T16:02:38.630Z,8.13
2022-12-20T16:05:05.372Z,8.57
2022-12-20T16:07:31.670Z,10.02
2022-12-20T16:09:57.964Z,8.55
2022-12-20T16:12:28.539Z,8.15
2022-12-20T16:14:55.280Z,7.80
2022-12-20T16:17:21.653Z,8.77
2022-12-20T16:19:48.170Z,9.95
2022-12-20T16:22:15.656Z,8.60
2022-12-20T16:24:42.034Z,9.60
2022-12-20T16:27:08.359Z,10.07
2022-12-20T16:29:34.729Z,9.85
2022-12-20T16:32:01.081Z,7.55
2022-12-20T16:34:27.385Z,9.23
2022-12-20T16:36:53.664Z,8.30
2022-12-20T16:39:19.955Z,9.68
2022-12-20T16:41:46.237Z,10.43
2022-12-20T16:44:16.289Z,9.32
2022-12-20T16:46:42.973Z,10.43
2022-12-20T16:49:17.796Z,11.70
2022-12-20T16:51:47.409Z,10.63
2022-12-20T16:54:19.833Z,10.68
2022-12-20T16:56:47.572Z,11.30
2022-12-20T16:59:19.913Z,12.48
2022-12-20T17:01:48.591Z,9.15
2022-12-20T17:04:16.565Z,12.50
2022-12-20T17:06:43.122Z,12.38
2022-12-20T17:09:09.809Z,12.30
2022-12-20T17:11:36.248Z,12.57
2022-12-20T17:14:05.205Z,13.18
2022-12-20T17:16:35.329Z,14.50
2022-12-20T17:19:01.685Z,9.73
2022-12-20T17:21:32.190Z,12.23
2022-12-20T17:23:58.456Z,10.23
2022-12-20T17:26:26.276Z,14.23
2022-12-20T17:28:53.743Z,10.65
2022-12-20T17:31:40.656Z,9.43
2022-12-20T17:34:13.285Z,10.18
2022-12-20T17:36:39.583Z,10.73
2022-12-20T17:39:05.846Z,10.35
2022-12-20T17:41:33.385Z,12.00
2022-12-20T17:44:00.570Z,8.77
2022-12-20T17:46:27.214Z,10.80
2022-12-20T17:48:53.606Z,10.85
2022-12-20T17:51:19.844Z,13.13
2022-12-20T17:53:46.948Z,12.35
2022-12-20T17:56:14.155Z,11.75
2022-12-20T17:58:40.794Z,10.65
2022-12-20T18:01:07.239Z,10.93
2022-12-20T18:04:04.497Z,13.00
2022-12-20T18:06:21.162Z,14.02
2022-12-20T18:08:51.344Z,20.70
2022-12-20T18:11:17.925Z,18.92
2022-12-20T18:13:45.196Z,15.13
2022-12-20T18:16:12.224Z,16.40
2022-12-20T18:18:38.886Z,19.13
2022-12-20T18:21:06.350Z,11.25
2022-12-20T18:23:33.531Z,15.68
2022-12-20T18:26:05.854Z,14.82
2022-12-20T18:28:32.125Z,14.68
2022-12-20T18:31:02.187Z,17.35
2022-12-20T18:33:28.448Z,16.00
2022-12-20T18:36:07.870Z,14.88
2022-12-20T18:38:34.995Z,14.40
2022-12-20T18:41:02.752Z,22.15
2022-12-20T18:43:30.675Z,16.80
2022-12-20T18:46:02.995Z,12.85
2022-12-20T18:48:29.350Z,16.10
2022-12-20T18:50:55.848Z,14.20
2022-12-20T18:53:22.195Z,14.13
2022-12-20T18:55:48.497Z,18.90
2022-12-20T18:58:14.769Z,15.80
2022-12-20T19:00:41.097Z,15.30
2022-12-20T19:03:07.662Z,16.08
2022-12-20T19:05:34.335Z,14.95
2022-12-20T19:08:00.810Z,17.45
2022-12-20T19:10:30.691Z,18.98
2022-12-20T19:13:02.346Z,11.82
2022-12-20T19:15:32.001Z,14.35
2022-12-20T19:17:58.310Z,17.80
2022-12-20T19:20:24.587Z,15.60
2022-12-20T19:22:52.696Z,17.88
2022-12-20T19:25:19.028Z,16.48
2022-12-20T19:27:45.377Z,17.75
2022-12-20T19:30:11.773Z,18.25
2022-12-20T19:32:38.072Z,15.93
2022-12-20T19:35:29.767Z,14.52
2022-12-20T19:37:50.900Z,15.68
2022-12-20T19:40:17.222Z,17.55
2022-12-20T19:42:43.609Z,15.02
2022-12-20T19:45:10.245Z,17.65
2022-12-20T19:47:36.630Z,17.67
2022-12-20T19:50:03.084Z,14.95
2022-12-20T19:52:29.673Z,26.98
2022-12-20T19:54:56.101Z,17.92
2022-12-20T19:57:22.377Z,20.98
2022-12-20T19:59:53.890Z,21.75
2022-12-20T20:02:22.453Z,18.90
2022-12-20T20:04:48.857Z,18.60
2022-12-20T20:07:15.457Z,18.45
2022-12-20T20:09:41.748Z,21.17
2022-12-20T20:12:08.179Z,19.92
2022-12-20T20:14:34.475Z,20.27
2022-12-20T20:17:00.827Z,23.73
2022-12-20T20:19:27.168Z,23.88
2022-12-20T20:21:53.594Z,20.05
2022-12-20T20:24:19.904Z,22.23
2022-12-20T20:26:46.210Z,22.20
2022-12-20T20:29:12.558Z,20.77
2022-12-20T20:31:39.058Z,23.67
2022-12-20T20:34:05.452Z,21.98
2022-12-20T20:36:31.776Z,21.90
2022-12-20T20:38:58.194Z,25.27
2022-12-20T20:41:24.841Z,39.42
2022-12-20T20:43:51.193Z,21.65
2022-12-20T20:46:17.832Z,24.73
2022-12-20T20:48:44.795Z,23.85
2022-12-20T20:51:11.511Z,36.42
2022-12-20T20:53:38.034Z,27.92
2022-12-20T20:56:04.943Z,30.52
2022-12-20T20:58:32.086Z,26.55
2022-12-20T21:00:59.281Z,19.42
2022-12-20T21:03:27.280Z,19.88
2022-12-20T21:06:32.822Z,9.88
2022-12-20T21:08:40.414Z,14.32
2022-12-20T21:11:07.535Z,24.70
2022-12-20T21:13:34.145Z,25.35
2022-12-20T21:16:16.034Z,27.08
2022-12-20T21:18:42.651Z,26.77
2022-12-20T21:21:10.431Z,26.98
2022-12-20T21:23:36.911Z,29.88
2022-12-20T21:26:03.548Z,27.60
2022-12-20T21:28:31.472Z,22.08
2022-12-20T21:30:59.175Z,22.13
2022-12-20T21:33:25.463Z,20.13
2022-12-20T21:36:21.105Z,19.50
2022-12-20T21:38:50.154Z,16.35
2022-12-20T21:41:17.165Z,16.50
2022-12-20T21:43:43.529Z,18.13
2022-12-20T21:46:11.384Z,14.80
2022-12-20T21:48:38.628Z,20.40
2022-12-20T21:51:06.039Z,8.82
2022-12-20T21:53:32.634Z,8.35
2022-12-20T21:55:59.862Z,9.38
2022-12-20T21:58:26.888Z,21.40
2022-12-20T22:00:55.155Z,8.63
2022-12-20T22:03:22.864Z,10.40
2022-12-20T22:05:49.972Z,9.73
2022-12-20T22:08:16.616Z,7.70
2022-12-20T22:10:43.382Z,10.00
2022-12-20T22:13:10.334Z,13.20
2022-12-20T22:15:37.681Z,10.27
2022-12-20T22:18:04.772Z,10.93
2022-12-20T22:20:31.094Z,8.05
2022-12-20T22:22:57.372Z,10.13
2022-12-20T22:25:24.311Z,11.02
2022-12-20T22:27:51.161Z,13.23
2022-12-20T22:30:17.510Z,11.73
2022-12-20T22:32:43.887Z,11.35
2022-12-20T22:35:10.477Z,9.88
2022-12-20T22:37:36.764Z,12.23
2022-12-20T22:40:03.354Z,27.20
2022-12-20T22:42:29.661Z,13.18
2022-12-20T22:44:56.599Z,12.75
2022-12-20T22:47:22.883Z,10.30
2022-12-20T22:49:49.212Z,11.27
2022-12-20T22:52:15.685Z,12.95
2022-12-20T22:54:41.936Z,15.18
2022-12-20T22:57:10.395Z,13.98
2022-12-20T22:59:36.710Z,12.18
2022-12-20T23:02:03.257Z,15.48
2022-12-20T23:04:29.859Z,13.00
2022-12-20T23:06:56.233Z,17.13
2022-12-20T23:09:25.623Z,14.98
2022-12-20T23:12:10.641Z,15.93
2022-12-20T23:15:01.744Z,17.77
2022-12-20T23:17:31.935Z,15.65
2022-12-20T23:20:17.008Z,14.57
2022-12-20T23:22:43.637Z,17.67
2022-12-20T23:25:14.319Z,11.15
2022-12-20T23:27:41.590Z,15.23
2022-12-20T23:30:08.956Z,14.00
2022-12-20T23:32:35.571Z,20.75
2022-12-20T23:35:05.509Z,13.32
2022-12-20T23:37:34.722Z,16.60
2022-12-20T23:40:01.018Z,15.40
2022-12-20T23:42:27.290Z,15.23
2022-12-20T23:44:53.564Z,17.58
2022-12-20T23:47:19.825Z,15.38
2022-12-20T23:49:46.234Z,13.70
2022-12-20T23:52:12.621Z,14.02
2022-12-20T23:54:38.921Z,32.20
2022-12-20T23:57:05.207Z,27.20
2022-12-20T23:59:31.495Z,34.85
